Latest Weather Observations for Lord Howe Island

IDN60801

Issued at 2:32 pm EST Thursday 28 May 2020 (issued every 10 minutes, with the page automatically refreshed every 10 minutes)

About weather observations | Map of weather stations | Latest weather observations for NSW | Other Formats
Station Details ID: 200839 Name: LORD HOWE ISLAND AERO Lat: -31.54 Lon: 159.08 Height: 5.0 m
Data from the previous 72 hours. | See also: Recent months at Lord Howe Island

Observations are collected in the New South Wales time zone (Eastern Standard Time) which includes daylight savings in the summer period. Therefore 'Rain since 9am' totals and other values are based on the New South Wales time zone, which may differ from local time.

Date/Time
EST
Temp
°C
App
Temp
°C
Dew
Point
°C
Rel
Hum
%
Delta-T
°C
Wind Press
QNH
hPa
Press
MSL
hPa
Rain since
9am
mm
Dir  Spd
km/h
Gust
km/h
Spd
kts
Gust
kts
28/02:30pm 20.3 19.2 16.3 78 2.4 E 17 30 9 16 1017.4 1017.4 0.2
28/02:00pm 21.2 20.3 16.8 76 2.7 E 17 26 9 14 1017.6 1017.6 0.2
28/01:30pm 20.5 19.1 16.5 78 2.4 E 19 28 10 15 1017.6 1017.6 0.2
28/01:00pm 20.9 19.5 17.1 79 2.3 E 20 30 11 16 1017.4 1017.4 0.2
28/12:30pm 20.8 19.4 17.0 79 2.3 E 20 30 11 16 1017.5 1017.5 0.2
28/12:00pm 20.8 19.8 16.6 77 2.5 E 17 24 9 13 1017.8 1017.8 0.2
28/11:30am 21.7 22.3 17.7 78 2.5 ESE 11 24 6 13 1018.3 1018.3 0.2
28/11:00am 21.7 21.8 18.3 81 2.1 E 15 26 8 14 1018.7 1018.7 0.0
28/10:30am 21.5 21.0 17.7 79 2.3 E 17 30 9 16 1018.9 1018.9 0.0
28/10:00am 20.8 21.2 16.4 76 2.6 ESE 9 19 5 10 1019.1 1019.1 0.0
28/09:30am 22.0 21.9 16.9 73 3.1 ESE 13 20 7 11 1019.1 1019.1 0.0
28/09:00am 21.8 22.0 17.6 77 2.6 ESE 13 33 7 18 1018.9 1018.9 0.0
28/08:30am 21.3 21.6 16.0 72 3.2 SSE 9 20 5 11 1018.7 1018.7 111.0
28/08:00am 20.9 19.9 15.7 72 3.1 ESE 15 28 8 15 1018.2 1018.2 111.0
28/07:30am 20.4 19.9 15.8 75 2.7 SE 13 28 7 15 1018.1 1018.1 111.0
28/07:00am 20.1 20.7 15.7 76 2.6 SSE 7 20 4 11 1017.7 1017.7 111.0
28/06:30am 20.0 19.2 15.2 74 2.8 SE 13 28 7 15 1017.6 1017.6 111.0
28/06:00am 19.7 19.5 15.8 78 2.3 SSE 11 24 6 13 1016.8 1016.8 111.0
28/05:30am 19.6 20.2 15.3 76 2.5 SSW 6 17 3 9 1016.3 1016.3 111.0
28/05:00am 19.4 19.7 15.9 80 2.1 SE 9 17 5 9 1016.1 1016.1 111.0
28/04:30am 19.5 19.4 16.0 80 2.1 SE 11 20 6 11 1016.1 1016.1 111.0
28/04:00am 19.2 19.8 15.7 80 2.1 SE 7 15 4 8 1016.1 1016.1 111.0
28/03:30am 19.0 19.7 15.7 81 2.0 SSE 6 11 3 6 1016.2 1016.2 111.0
28/03:00am 19.6 18.7 16.8 84 1.7 SSW 17 32 9 17 1016.0 1016.0 111.0
28/02:30am 19.6 19.9 15.9 79 2.2 SSW 9 17 5 9 1015.9 1015.9 111.0
28/02:00am 19.7 20.4 16.0 79 2.2 S 7 17 4 9 1015.8 1015.8 111.0
28/01:30am 19.8 19.6 15.7 77 2.4 SE 11 20 6 11 1015.9 1015.9 111.0
28/01:00am 19.9 19.4 16.0 78 2.3 SSW 13 24 7 13 1015.8 1015.8 111.0
28/12:30am 19.9 19.5 16.2 79 2.2 SSW 13 22 7 12 1015.5 1015.5 111.0
28/12:00am 19.7 19.8 16.5 82 1.9 SE 11 17 6 9 1015.5 1015.5 111.0
 
Date/Time
EST
Temp
°C
App
Temp
°C
Dew
Point
°C
Rel
Hum
%
Delta-T
°C
Wind Press
QNH
hPa
Press
MSL
hPa
Rain since
9am
mm
Dir  Spd
km/h
Gust
km/h
Spd
kts
Gust
kts
27/11:34pm 19.7 20.7 16.9 84 1.7 ESE 7 19 4 10 1015.4 1015.4 111.0
27/11:30pm 19.6 20.7 16.6 83 1.8 NNE 6 17 3 9 1015.3 1015.3 111.0
27/11:00pm 19.7 19.6 16.9 84 1.7 SSE 13 24 7 13 1015.2 1015.2 111.0
27/10:42pm 19.6 19.4 16.8 84 1.7 ESE 13 22 7 12 1015.1 1015.1 111.0
27/10:30pm 19.4 18.7 16.4 83 1.8 SE 15 30 8 16 1015.1 1015.1 111.0
27/10:05pm 19.1 18.4 16.3 84 1.7 SSE 15 35 8 19 1014.8 1014.8 111.0
27/10:00pm 19.5 18.8 16.3 82 1.9 SSE 15 35 8 19 1014.9 1014.9 111.0
27/09:30pm 19.4 19.6 16.8 85 1.6 SE 11 24 6 13 1014.8 1014.8 111.0
27/09:25pm 19.4 18.9 16.8 85 1.6 SSW 15 37 8 20 1014.9 1014.9 111.0
27/09:00pm 19.3 18.6 16.3 83 1.8 ESE 15 30 8 16 1015.0 1015.0 111.0
27/08:30pm 19.1 18.9 16.7 86 1.4 ESE 13 24 7 13 1014.8 1014.8 111.0
27/08:11pm 18.7 19.0 16.9 89 1.1 SSE 11 20 6 11 1014.8 1014.8 111.0
27/08:00pm 18.9 18.8 16.9 88 1.2 SSE 13 26 7 14 1014.8 1014.8 111.0
27/07:42pm 18.5 18.5 17.3 93 0.7 ESE 13 22 7 12 1014.5 1014.5 111.0
27/07:30pm 18.5 18.2 17.3 93 0.7 ESE 15 28 8 15 1014.1 1014.1 111.0
27/07:00pm 18.4 15.9 17.2 93 0.7 E 26 39 14 21 1013.3 1013.3 111.0
27/06:30pm 18.4 13.5 17.4 94 0.6 E 39 52 21 28 1012.4 1012.4 111.0
27/06:00pm 18.5 14.6 17.9 96 0.4 E 35 52 19 28 1012.5 1012.5 111.0
27/05:58pm 18.4 14.7 17.4 94 0.6 E 33 52 18 28 1012.4 1012.4 111.0
27/05:56pm 18.4 15.0 17.6 95 0.5 E 32 52 17 28 1012.4 1012.4 111.0
27/05:43pm 17.9 16.4 17.7 99 0.1 ESE 22 43 12 23 1012.5 1012.5 111.0
27/05:30pm 17.8 13.8 17.6 99 0.1 E 35 57 19 31 1012.3 1012.3 111.0
27/05:00pm 18.0 13.4 18.0 100 0.0 ESE 39 57 21 31 1011.8 1011.8 110.8
27/04:36pm 18.5 17.0 18.5 100 0.0 ESE 24 48 13 26 1011.3 1011.3 108.0
27/04:30pm 19.4 20.7 19.4 100 0.0 ESE 11 32 6 17 1011.1 1011.1 106.6
27/04:00pm 20.2 23.3 20.2 100 0.0 SE 4 13 2 7 1010.6 1010.6 101.4
27/03:52pm 20.3 23.8 20.3 100 0.0 ENE 2 6 1 3 1010.6 1010.6 101.2
27/03:32pm 20.4 23.2 20.4 100 0.0 ENE 6 9 3 5 1010.5 1010.5 100.8
27/03:30pm 20.4 23.2 20.4 100 0.0 ENE 6 9 3 5 1010.5 1010.5 100.8
27/03:29pm 20.4 23.2 20.4 100 0.0 ENE 6 9 3 5 1010.5 1010.5 100.8
27/03:14pm 19.9 22.2 19.9 100 0.0 SW 7 9 4 5 1010.5 1010.5 100.8
27/03:00pm 19.7 21.6 19.7 100 0.0 WNW 9 15 5 8 1010.5 1010.5 100.6
27/02:30pm 20.1 22.5 20.1 100 0.0 NNE 7 17 4 9 1010.4 1010.4 100.6
27/02:00pm 20.0 20.5 20.0 100 0.0 NNE 17 33 9 18 1010.6 1010.6 100.0
27/01:30pm 19.9 18.6 19.9 100 0.0 NE 26 37 14 20 1011.2 1011.2 96.4
27/01:00pm 19.3 16.0 19.3 100 0.0 ENE 35 50 19 27 1011.8 1011.8 93.6
27/12:30pm 18.8 14.9 18.8 100 0.0 NE 37 48 20 26 1012.8 1012.8 88.0
27/12:12pm 18.8 14.6 18.8 100 0.0 NE 39 52 21 28 1013.2 1013.2 71.8
27/12:00pm 19.3 17.0 19.3 100 0.0 NE 30 43 16 23 1013.6 1013.6 67.0
27/11:30am 19.2 17.6 19.2 100 0.0 NE 26 50 14 27 1014.3 1014.3 63.6
27/11:22am 19.0 17.3 19.0 100 0.0 ENE 26 35 14 19 1014.1 1014.1 63.2
27/11:05am 19.1 16.3 19.1 100 0.0 ENE 32 48 17 26 1014.9 1014.9 51.8
27/11:00am 18.9 14.7 18.9 100 0.0 ENE 39 57 21 31 1014.3 1014.3 47.2
27/10:52am 19.0 15.2 19.0 100 0.0 ENE 37 57 20 31 1014.2 1014.2 43.0
27/10:30am 18.7 15.5 18.7 100 0.0 E 33 43 18 23 1015.1 1015.1 32.0
27/10:00am 19.1 15.0 19.1 100 0.0 ENE 39 46 21 25 1015.6 1015.6 11.6
27/09:30am 18.7 15.1 18.5 99 0.1 ENE 35 43 19 23 1016.1 1016.1 6.0
27/09:22am 19.0 15.9 18.8 99 0.1 ENE 33 41 18 22 1016.5 1016.5 1.6
27/09:00am 18.9 15.4 18.7 99 0.1 ENE 35 46 19 25 1016.0 1016.0 0.4
27/08:40am 18.6 13.4 18.4 99 0.1 ENE 43 50 23 27 1016.0 1016.0 0.0
27/08:30am 18.4 13.5 18.1 98 0.2 ENE 41 50 22 27 1016.1 1016.1 10.4
27/08:00am 17.9 12.8 17.7 99 0.1 NE 41 50 22 27 1016.3 1016.3 10.0
27/07:30am 18.3 12.8 17.7 96 0.4 ENE 43 54 23 29 1015.8 1015.8 7.6
27/07:00am 18.1 13.1 17.9 99 0.1 NE 41 50 22 27 1016.3 1016.3 4.2
27/06:42am 17.8 12.7 16.7 93 0.7 NE 39 52 21 28 1016.7 1016.7 1.6
27/06:30am 18.8 14.6 17.1 90 1.0 NNE 35 50 19 27 1016.6 1016.6 1.4
27/06:16am 19.4 16.6 17.2 87 1.3 NE 28 56 15 30 1016.2 1016.2 1.4
27/06:00am 20.1 18.0 17.1 83 1.8 NE 24 39 13 21 1016.0 1016.0 1.4
27/05:32am 19.4 16.5 17.0 86 1.5 NE 28 46 15 25 1015.9 1015.9 1.4
27/05:30am 19.6 17.6 17.4 87 1.3 NE 24 37 13 20 1015.9 1015.9 1.4
27/05:05am 19.2 15.8 15.7 80 2.1 NNE 28 46 15 25 1015.9 1015.9 1.2
27/05:00am 19.0 16.6 15.3 79 2.2 NNE 22 46 12 25 1015.7 1015.7 1.0
27/04:43am 20.7 17.7 16.7 78 2.4 NE 28 46 15 25 1015.7 1015.7 0.4
27/04:30am 20.9 17.7 16.3 75 2.8 NE 28 35 15 19 1015.4 1015.4 0.4
27/04:00am 19.9 16.3 12.9 64 4.0 NNE 24 57 13 31 1015.7 1015.7 0.2
27/03:30am 20.1 17.1 16.9 82 1.9 NE 28 41 15 22 1015.5 1015.5 0.2
27/03:00am 21.4 18.5 17.0 76 2.7 NE 28 35 15 19 1015.5 1015.5 0.0
27/02:30am 21.3 18.8 17.1 77 2.6 NE 26 33 14 18 1015.6 1015.6 0.0
27/02:00am 21.5 19.8 17.1 76 2.7 NE 22 30 12 16 1016.0 1016.0 0.0
27/01:30am 21.5 20.0 16.7 74 2.9 NNE 20 28 11 15 1016.3 1016.3 0.0
27/01:00am 21.5 19.6 16.7 74 2.9 NE 22 30 12 16 1016.5 1016.5 0.0
27/12:30am 21.1 20.7 18.1 83 1.9 NE 17 20 9 11 1016.6 1016.6 0.0
27/12:00am 21.1 20.2 18.3 84 1.7 NE 20 24 11 13 1016.4 1016.4 0.0
 
Date/Time
EST
Temp
°C
App
Temp
°C
Dew
Point
°C
Rel
Hum
%
Delta-T
°C
Wind Press
QNH
hPa
Press
MSL
hPa
Rain since
9am
mm
Dir  Spd
km/h
Gust
km/h
Spd
kts
Gust
kts
26/11:30pm 21.0 19.8 18.4 85 1.6 NE 22 30 12 16 1016.5 1016.5 0.0
26/11:00pm 21.0 20.7 18.2 84 1.7 NE 17 24 9 13 1016.6 1016.6 0.0
26/10:30pm 20.9 19.7 17.5 81 2.1 NE 20 26 11 14 1016.8 1016.8 0.0
26/10:00pm 20.7 19.9 17.9 84 1.7 NE 19 22 10 12 1016.9 1016.9 0.0
26/09:30pm 20.7 19.9 17.1 80 2.2 NNE 17 28 9 15 1016.7 1016.7 0.0
26/09:00pm 20.6 19.5 17.4 82 2.0 NE 19 32 10 17 1016.6 1016.6 0.0
26/08:30pm 19.5 19.3 16.7 84 1.7 NE 13 17 7 9 1016.8 1016.8 0.0
26/08:00pm 20.4 19.9 16.0 76 2.6 NNE 13 22 7 12 1016.8 1016.8 0.0
26/07:30pm 20.3 20.3 16.3 78 2.4 NE 11 19 6 10 1016.3 1016.3 0.0
26/07:00pm 20.0 19.6 16.2 79 2.3 NE 13 24 7 13 1016.2 1016.2 0.0
26/06:30pm 19.8 19.6 16.6 82 1.9 NE 13 20 7 11 1016.0 1016.0 0.0
26/06:00pm 20.2 18.7 16.2 78 2.4 NNE 19 32 10 17 1015.7 1015.7 0.0
26/05:30pm 20.8 20.7 16.0 74 2.9 NNE 11 20 6 11 1015.6 1015.6 0.0
26/05:00pm 20.5 20.4 16.1 76 2.6 N 11 17 6 9 1015.2 1015.2 0.0
26/04:30pm 20.0 20.3 15.0 73 2.9 N 7 11 4 6 1015.0 1015.0 0.0
26/04:00pm 21.2 21.4 15.7 71 3.3 NNE 9 13 5 7 1014.7 1014.7 0.0
26/03:30pm 22.1 22.3 15.7 67 3.8 N 9 15 5 8 1014.6 1014.6 0.0
26/03:00pm 22.8 24.2 16.4 67 3.9 NNW 4 11 2 6 1014.1 1014.1 0.0
26/02:30pm 22.5 23.0 16.5 69 3.6 NW 9 15 5 8 1014.2 1014.2 0.0
26/02:00pm 22.9 23.3 16.4 67 4.0 NW 9 17 5 9 1014.2 1014.2 0.0
26/01:30pm 21.9 21.5 16.2 70 3.4 WNW 13 24 7 13 1014.1 1014.1 0.0
26/01:00pm 23.2 23.6 17.2 69 3.7 NW 11 19 6 10 1014.1 1014.1 0.0
26/12:30pm 23.1 22.9 16.6 67 4.0 WNW 13 22 7 12 1014.1 1014.1 0.0
26/12:00pm 23.1 23.1 17.3 70 3.6 WNW 13 19 7 10 1014.1 1014.1 0.0
26/11:30am 23.1 22.9 16.6 67 4.0 NW 13 22 7 12 1014.2 1014.2 0.0
26/11:00am 22.5 22.4 17.0 71 3.4 WNW 13 20 7 11 1014.4 1014.4 0.0
26/10:30am 23.0 23.4 17.2 70 3.6 WNW 11 22 6 12 1014.6 1014.6 0.0
26/10:00am 21.9 21.9 17.1 74 2.9 WNW 13 20 7 11 1014.8 1014.8 0.0
26/09:30am 22.5 22.6 17.4 73 3.1 WNW 13 22 7 12 1014.8 1014.8 0.0
26/09:00am 21.7 21.6 16.9 74 2.9 WNW 13 20 7 11 1014.8 1014.8 0.0
26/08:30am 21.4 21.4 17.2 77 2.6 WNW 13 20 7 11 1014.6 1014.6 0.8
26/08:00am 21.6 21.7 17.4 77 2.6 WNW 13 19 7 10 1014.3 1014.3 0.8
26/07:30am 20.8 20.6 16.6 77 2.5 WNW 13 19 7 10 1013.9 1013.9 0.8
26/07:00am 20.0 20.3 17.0 83 1.8 WNW 11 17 6 9 1013.6 1013.6 0.8
26/06:30am 19.4 20.2 17.2 87 1.3 WNW 9 22 5 12 1013.1 1013.1 0.8
26/06:00am 20.1 19.9 16.7 81 2.1 WNW 13 22 7 12 1012.9 1012.9 0.6
26/05:30am 20.2 19.9 17.4 84 1.7 WNW 15 22 8 12 1012.6 1012.6 0.6
26/05:00am 20.2 20.6 17.2 83 1.8 WNW 11 20 6 11 1012.2 1012.2 0.6
26/04:30am 20.3 20.3 17.3 83 1.8 WNW 13 20 7 11 1011.9 1011.9 0.6
26/04:00am 20.1 20.1 17.1 83 1.8 WNW 13 20 7 11 1011.7 1011.7 0.6
26/03:30am 20.3 19.9 17.1 82 1.9 WNW 15 24 8 13 1011.6 1011.6 0.6
26/03:00am 20.3 20.3 17.1 82 2.0 WNW 13 22 7 12 1011.5 1011.5 0.6
26/02:30am 20.6 20.6 18.0 85 1.6 W 15 22 8 12 1011.4 1011.4 0.6
26/02:00am 20.5 20.3 17.5 83 1.8 WNW 15 24 8 13 1011.3 1011.3 0.6
26/01:30am 20.4 20.3 17.0 81 2.1 WNW 13 22 7 12 1011.3 1011.3 0.6
26/01:00am 20.3 20.7 17.3 83 1.8 WNW 11 17 6 9 1011.1 1011.1 0.6
26/12:30am 20.5 19.9 17.5 83 1.8 WNW 17 24 9 13 1011.1 1011.1 0.6
26/12:00am 20.5 19.9 17.5 83 1.8 WNW 17 24 9 13 1011.1 1011.1 0.6
 
Date/Time
EST
Temp
°C
App
Temp
°C
Dew
Point
°C
Rel
Hum
%
Delta-T
°C
Wind Press
QNH
hPa
Press
MSL
hPa
Rain since
9am
mm
Dir  Spd
km/h
Gust
km/h
Spd
kts
Gust
kts
25/11:30pm 20.7 19.9 17.9 84 1.7 WNW 19 24 10 13 1011.0 1011.0 0.6
25/11:00pm 20.6 20.2 18.0 85 1.6 W 17 28 9 15 1010.8 1010.8 0.6
25/10:30pm 20.6 18.9 18.2 86 1.5 W 24 32 13 17 1010.7 1010.7 0.6
25/10:00pm 20.8 19.6 18.4 86 1.5 W 22 30 12 16 1010.4 1010.4 0.6
25/09:30pm 20.8 18.8 18.4 86 1.5 W 26 33 14 18 1010.0 1010.0 0.6
25/09:00pm 20.8 18.3 18.0 84 1.7 W 28 33 15 18 1009.9 1009.9 0.6
25/08:30pm 20.7 18.8 18.5 87 1.4 W 26 33 14 18 1009.7 1009.7 0.6
25/08:00pm 20.5 18.5 18.4 88 1.3 W 26 37 14 20 1009.6 1009.6 0.6
25/07:30pm 20.8 18.0 18.2 85 1.6 W 30 37 16 20 1009.2 1009.2 0.6
25/07:00pm 20.6 18.1 18.0 85 1.6 W 28 37 15 20 1008.9 1008.9 0.6
25/06:30pm 20.6 17.5 18.4 87 1.4 W 32 39 17 21 1008.7 1008.7 0.6
25/06:00pm 20.4 17.7 18.5 89 1.2 W 30 35 16 19 1008.3 1008.3 0.6
25/05:39pm 19.6 18.6 17.9 90 1.0 W 20 35 11 19 1008.1 1008.1 0.6
25/05:30pm 20.0 16.6 17.6 86 1.5 W 32 44 17 24 1008.1 1008.1 0.4
25/05:27pm 20.8 17.7 18.4 86 1.5 W 32 44 17 24 1008.0 1008.0 0.4
25/05:00pm 20.6 18.6 18.4 87 1.4 W 26 33 14 18 1007.5 1007.5 0.4
25/04:30pm 20.5 18.4 18.1 86 1.5 W 26 33 14 18 1007.1 1007.1 0.4
25/04:00pm 20.7 18.6 18.1 85 1.6 W 26 32 14 17 1007.0 1007.0 0.4
25/03:30pm 21.3 20.4 18.1 82 2.0 W 20 28 11 15 1007.0 1007.0 0.4
25/03:00pm 21.5 19.2 17.5 78 2.5 W 26 32 14 17 1006.7 1006.7 0.4
25/02:30pm 21.7 18.9 17.3 76 2.7 W 28 33 15 18 1006.3 1006.3 0.4

Other formats

Comma delimited format used in spreadsheet applications
http://www.bom.gov.au/fwo/IDN60801/IDN60801.94995.axf

JavaScript Object Notation format (JSON) in row-major order
http://www.bom.gov.au/fwo/IDN60801/IDN60801.94995.json

Data quality

Most of these data are generated automatically and are frequently updated. Quality checks on data are not normally performed. It is possible for incorrect values to appear. Refer to information at About Latest Weather Observations and please check the disclaimer before using these data.